createdAt,value
2017-11-29T00:01:54.664Z,98741.95
2017-11-29T00:04:22.146Z,98745.30
2017-11-29T00:06:52.949Z,98747.83
2017-11-29T00:09:20.405Z,98746.98
2017-11-29T00:11:47.900Z,98739.41
2017-11-29T00:14:15.706Z,98739.83
2017-11-29T00:16:43.423Z,98741.91
2017-11-29T00:19:10.934Z,98746.56
2017-11-29T00:21:38.445Z,98744.87
2017-11-29T00:24:05.905Z,98738.14
2017-11-29T00:26:34.363Z,98740.22
2017-11-29T00:29:01.825Z,98735.98
2017-11-29T00:31:29.333Z,98736.81
2017-11-29T00:33:56.785Z,98732.59
2017-11-29T00:36:24.294Z,98728.81
2017-11-29T00:38:51.799Z,98729.22
2017-11-29T00:41:19.277Z,98727.55
2017-11-29T00:43:46.744Z,98730.50
2017-11-29T00:46:14.967Z,98730.95
2017-11-29T00:48:42.480Z,98727.55
2017-11-29T00:51:09.974Z,98736.38
2017-11-29T00:53:37.471Z,98730.92
2017-11-29T00:56:04.931Z,98728.39
2017-11-29T00:58:33.462Z,98732.19
2017-11-29T01:01:00.931Z,98726.30
2017-11-29T01:03:28.381Z,98726.69
2017-11-29T01:05:55.856Z,98726.73
2017-11-29T01:08:23.316Z,98724.62
2017-11-29T01:10:50.894Z,98728.00
2017-11-29T01:13:18.394Z,98719.14
2017-11-29T01:15:45.877Z,98722.11
2017-11-29T01:18:13.371Z,98719.98
2017-11-29T01:20:40.830Z,98720.84
2017-11-29T01:23:08.297Z,98723.78
2017-11-29T01:25:35.770Z,98724.66
2017-11-29T01:28:03.264Z,98723.38
2017-11-29T01:30:30.773Z,98716.20
2017-11-29T01:32:58.223Z,98715.77
2017-11-29T01:35:25.691Z,98709.02
2017-11-29T01:37:53.176Z,98709.45
2017-11-29T01:40:20.632Z,98708.20
2017-11-29T01:42:48.206Z,98705.25
2017-11-29T01:45:15.769Z,98707.77
2017-11-29T01:47:43.256Z,98698.52
2017-11-29T01:50:10.809Z,98699.80
2017-11-29T01:52:38.604Z,98699.77
2017-11-29T01:55:06.080Z,98697.67
2017-11-29T01:57:33.596Z,98702.31
2017-11-29T02:00:01.127Z,98699.78
2017-11-29T02:02:28.608Z,98698.93
2017-11-29T02:04:56.116Z,98693.46
2017-11-29T02:07:23.581Z,98691.36
2017-11-29T02:09:51.036Z,98681.67
2017-11-29T02:12:18.557Z,98681.25
2017-11-29T02:14:46.028Z,98679.58
2017-11-29T02:17:13.515Z,98681.28
2017-11-29T02:19:40.989Z,98679.58
2017-11-29T02:22:08.445Z,98678.30
2017-11-29T02:24:35.973Z,98675.77
2017-11-29T02:27:03.443Z,98677.43
2017-11-29T02:29:30.904Z,98674.08
2017-11-29T02:31:58.385Z,98669.89
2017-11-29T02:34:25.917Z,98677.02
2017-11-29T02:36:53.420Z,98677.88
2017-11-29T02:39:20.893Z,98667.77
2017-11-29T02:41:59.955Z,98667.80
2017-11-29T02:44:27.435Z,98673.23
2017-11-29T02:46:54.888Z,98670.72
2017-11-29T02:49:22.371Z,98676.59
2017-11-29T02:51:49.824Z,98667.75
2017-11-29T02:54:17.285Z,98666.48
2017-11-29T02:56:44.770Z,98665.66
2017-11-29T02:59:12.251Z,98671.52
2017-11-29T03:01:39.738Z,98678.28
2017-11-29T03:04:07.235Z,98682.89
2017-11-29T03:06:35.766Z,98688.34
2017-11-29T03:09:03.268Z,98685.84
2017-11-29T03:11:30.724Z,98682.91
2017-11-29T03:13:58.184Z,98670.71
2017-11-29T03:16:25.648Z,98682.06
2017-11-29T03:18:53.761Z,98684.17
2017-11-29T03:21:21.254Z,98682.03
2017-11-29T03:23:48.730Z,98691.72
2017-11-29T03:26:16.969Z,98685.83
2017-11-29T03:28:44.441Z,98686.69
2017-11-29T03:31:11.918Z,98692.16
2017-11-29T03:33:39.408Z,98695.09
2017-11-29T03:36:07.513Z,98695.95
2017-11-29T03:38:36.310Z,98690.90
2017-11-29T03:41:03.773Z,98683.73
2017-11-29T03:43:31.233Z,98685.83
2017-11-29T03:45:58.707Z,98686.23
2017-11-29T03:48:26.294Z,98692.96
2017-11-29T03:50:53.764Z,98682.45
2017-11-29T03:53:21.241Z,98694.69
2017-11-29T03:55:48.692Z,98692.59
2017-11-29T03:58:16.488Z,98691.73
2017-11-29T04:00:43.972Z,98690.87
2017-11-29T04:03:11.441Z,98692.98
2017-11-29T04:05:39.408Z,98695.95
2017-11-29T04:08:06.894Z,98692.16
2017-11-29T04:10:35.041Z,98686.28
2017-11-29T04:13:02.558Z,98690.06
2017-11-29T04:15:30.034Z,98695.96
2017-11-29T04:17:57.512Z,98692.99
2017-11-29T04:20:25.025Z,98693.86
2017-11-29T04:22:52.488Z,98689.66
2017-11-29T04:25:19.990Z,98701.41
2017-11-29T04:27:47.463Z,98693.83
2017-11-29T04:30:14.931Z,98694.27
2017-11-29T04:32:43.019Z,98694.25
2017-11-29T04:35:10.513Z,98695.97
2017-11-29T04:37:37.973Z,98688.80
2017-11-29T04:40:05.444Z,98692.20
2017-11-29T04:42:33.363Z,98693.44
2017-11-29T04:45:00.846Z,98696.39
2017-11-29T04:47:28.547Z,98695.95
2017-11-29T04:49:56.010Z,98697.25
2017-11-29T04:52:23.489Z,98701.45
2017-11-29T04:54:51.108Z,98707.78
2017-11-29T04:57:18.613Z,98703.56
2017-11-29T04:59:46.145Z,98704.81
2017-11-29T05:02:13.639Z,98703.13
2017-11-29T05:04:41.104Z,98707.78
2017-11-29T05:07:08.625Z,98706.91
2017-11-29T05:09:36.101Z,98706.09
2017-11-29T05:12:03.612Z,98709.88
2017-11-29T05:14:31.100Z,98705.64
2017-11-29T05:16:58.580Z,98709.88
2017-11-29T05:19:26.077Z,98703.13
2017-11-29T05:21:53.542Z,98706.47
2017-11-29T05:24:21.025Z,98706.47
2017-11-29T05:26:48.511Z,98708.16
2017-11-29T05:29:16.030Z,98711.53
2017-11-29T05:31:43.542Z,98706.91
2017-11-29T05:34:11.025Z,98706.08
2017-11-29T05:36:38.546Z,98708.59
2017-11-29T05:39:06.027Z,98711.95
2017-11-29T05:41:33.502Z,98705.22
2017-11-29T05:44:00.999Z,98707.77
2017-11-29T05:46:28.531Z,98706.48
2017-11-29T05:48:56.021Z,98706.08
2017-11-29T05:51:23.571Z,98703.14
2017-11-29T05:53:51.084Z,98700.19
2017-11-29T05:56:18.680Z,98703.54
2017-11-29T05:58:46.128Z,98701.44
2017-11-29T06:01:13.608Z,98696.41
2017-11-29T06:03:41.264Z,98699.39
2017-11-29T06:06:08.731Z,98699.36
2017-11-29T06:08:37.890Z,98705.67
2017-11-29T06:11:05.391Z,98707.78
2017-11-29T06:13:32.851Z,98705.25
2017-11-29T06:16:00.304Z,98706.91
2017-11-29T06:18:28.562Z,98711.55
2017-11-29T06:20:56.068Z,98720.80
2017-11-29T06:23:23.576Z,98731.75
2017-11-29T06:25:51.045Z,98728.83
2017-11-29T06:28:18.538Z,98727.14
2017-11-29T06:30:48.367Z,98728.39
2017-11-29T06:33:16.785Z,98733.45
2017-11-29T06:35:44.241Z,98738.09
2017-11-29T06:38:11.821Z,98741.47
2017-11-29T06:40:39.309Z,98743.16
2017-11-29T06:43:06.772Z,98743.16
2017-11-29T06:45:34.265Z,98748.64
2017-11-29T06:48:01.805Z,98746.50
2017-11-29T06:50:29.274Z,98743.14
2017-11-29T06:52:56.795Z,98745.67
2017-11-29T06:55:24.266Z,98750.30
2017-11-29T06:57:51.771Z,98748.66
2017-11-29T07:00:19.289Z,98754.14
2017-11-29T07:02:46.797Z,98753.27
2017-11-29T07:05:14.426Z,98751.61
2017-11-29T07:07:41.966Z,98759.20
2017-11-29T07:10:09.445Z,98758.33
2017-11-29T07:12:36.967Z,98764.67
2017-11-29T07:15:04.445Z,98765.11
2017-11-29T07:17:32.003Z,98768.48
2017-11-29T07:19:59.465Z,98762.58
2017-11-29T07:22:26.948Z,98763.44
2017-11-29T07:24:54.405Z,98766.79
2017-11-29T07:27:21.863Z,98767.65
2017-11-29T07:29:49.372Z,98768.48
2017-11-29T07:32:17.561Z,98766.39
2017-11-29T07:34:45.036Z,98767.66
2017-11-29T07:37:12.515Z,98775.23
2017-11-29T07:39:39.966Z,98766.81
2017-11-29T07:42:07.440Z,98774.83
2017-11-29T07:44:35.049Z,98771.84
2017-11-29T07:47:02.541Z,98771.43
2017-11-29T07:49:30.196Z,98773.52
2017-11-29T07:51:57.936Z,98777.73
2017-11-29T07:54:25.549Z,98773.51
2017-11-29T07:56:53.010Z,98775.14
2017-11-29T07:59:20.488Z,98776.80
2017-11-29T08:01:47.973Z,98777.62
2017-11-29T08:04:15.766Z,98775.94
2017-11-29T08:06:43.491Z,98772.97
2017-11-29T08:09:10.960Z,98771.30
2017-11-29T08:11:38.694Z,98770.81
2017-11-29T08:14:06.249Z,98764.89
2017-11-29T08:16:33.914Z,98760.60
2017-11-29T08:19:01.375Z,98770.23
2017-11-29T08:21:28.846Z,98771.06
2017-11-29T08:23:56.309Z,98768.92
2017-11-29T08:26:23.758Z,98776.08
2017-11-29T08:28:51.271Z,98776.08
2017-11-29T08:31:18.745Z,98774.88
2017-11-29T08:33:46.222Z,98776.09
2017-11-29T08:36:13.711Z,98780.77
2017-11-29T08:38:41.342Z,98780.77
2017-11-29T08:41:08.826Z,98786.67
2017-11-29T08:43:36.308Z,98789.99
2017-11-29T08:46:03.814Z,98789.17
2017-11-29T08:48:31.640Z,98790.88
2017-11-29T08:50:59.115Z,98792.56
2017-11-29T08:53:26.625Z,98797.23
2017-11-29T08:55:54.109Z,98792.56
2017-11-29T08:58:21.591Z,98788.83
2017-11-29T09:00:49.610Z,98790.50
2017-11-29T09:03:17.989Z,98800.23
2017-11-29T09:05:45.477Z,98804.08
2017-11-29T09:08:12.938Z,98804.08
2017-11-29T09:10:40.445Z,98802.78
2017-11-29T09:13:08.140Z,98805.77
2017-11-29T09:15:35.605Z,98802.00
2017-11-29T09:18:03.144Z,98801.14
2017-11-29T09:20:30.605Z,98793.47
2017-11-29T09:22:58.897Z,98792.67
2017-11-29T09:25:26.411Z,98791.38
2017-11-29T09:27:53.883Z,98788.38
2017-11-29T09:30:21.376Z,98795.61
2017-11-29T09:32:48.843Z,98798.16
2017-11-29T09:35:16.291Z,98787.98
2017-11-29T09:37:43.812Z,98791.36
2017-11-29T09:40:11.417Z,98782.48
2017-11-29T09:42:38.889Z,98779.95
2017-11-29T09:45:06.405Z,98770.17
2017-11-29T09:47:33.937Z,98760.41
2017-11-29T09:50:01.454Z,98767.94
2017-11-29T09:52:28.957Z,98762.48
2017-11-29T09:54:56.481Z,98757.88
2017-11-29T09:57:23.997Z,98761.66
2017-11-29T09:59:51.547Z,98751.46
2017-11-29T10:02:19.214Z,98740.80
2017-11-29T10:04:46.700Z,98740.00
2017-11-29T10:07:14.270Z,98729.79
2017-11-29T10:09:41.802Z,98736.55
2017-11-29T10:12:09.313Z,98737.39
2017-11-29T10:14:36.902Z,98738.24
2017-11-29T10:17:04.381Z,98740.77
2017-11-29T10:19:31.872Z,98754.42
2017-11-29T10:21:59.332Z,98765.05
2017-11-29T10:24:26.914Z,98760.89
2017-11-29T10:26:54.410Z,98758.78
2017-11-29T10:29:21.940Z,98748.71
2017-11-29T10:31:49.404Z,98749.52
2017-11-29T10:34:19.092Z,98754.64
2017-11-29T10:36:46.914Z,98756.31
2017-11-29T10:39:14.382Z,98755.45
2017-11-29T10:41:41.895Z,98746.13
2017-11-29T10:44:09.380Z,98744.05
2017-11-29T10:46:37.592Z,98749.54
2017-11-29T10:49:05.104Z,98749.59
2017-11-29T10:51:32.571Z,98747.50
2017-11-29T10:54:00.034Z,98745.03
2017-11-29T10:56:27.596Z,98739.54
2017-11-29T10:58:55.120Z,98740.38
2017-11-29T11:01:22.580Z,98737.88
2017-11-29T11:03:50.054Z,98734.48
2017-11-29T11:06:17.631Z,98744.19
2017-11-29T11:08:45.145Z,98748.39
2017-11-29T11:11:12.789Z,98741.64
2017-11-29T11:13:40.306Z,98739.11
2017-11-29T11:16:07.824Z,98743.33
2017-11-29T11:18:36.125Z,98742.41
2017-11-29T11:21:03.651Z,98728.42
2017-11-29T11:23:31.814Z,98732.22
2017-11-29T11:25:59.305Z,98738.62
2017-11-29T11:28:26.857Z,98742.89
2017-11-29T11:30:54.878Z,98737.43
2017-11-29T11:33:22.421Z,98734.44
2017-11-29T11:35:49.885Z,98736.56
2017-11-29T11:38:17.556Z,98736.99
2017-11-29T11:40:45.083Z,98736.10
2017-11-29T11:43:12.545Z,98737.29
2017-11-29T11:45:40.028Z,98729.24
2017-11-29T11:48:07.485Z,98712.66
2017-11-29T11:50:35.699Z,98702.82
2017-11-29T11:53:03.187Z,98701.43
2017-11-29T11:55:30.730Z,98700.54
2017-11-29T11:57:58.213Z,98702.73
2017-11-29T12:00:25.865Z,98704.04
2017-11-29T12:02:53.352Z,98707.09
2017-11-29T12:05:20.830Z,98715.94
2017-11-29T12:07:48.307Z,98703.73
2017-11-29T12:10:17.831Z,98711.70
2017-11-29T12:12:45.945Z,98710.48
2017-11-29T12:15:13.438Z,98702.04
2017-11-29T12:17:40.940Z,98700.75
2017-11-29T12:20:08.432Z,98690.12
2017-11-29T12:22:37.024Z,98686.22
2017-11-29T12:25:04.490Z,98687.94
2017-11-29T12:27:31.959Z,98690.05
2017-11-29T12:29:59.429Z,98692.20
2017-11-29T12:32:26.983Z,98698.98
2017-11-29T12:34:54.552Z,98705.80
2017-11-29T12:37:22.016Z,98705.91
2017-11-29T12:39:49.560Z,98707.64
2017-11-29T12:42:17.093Z,98701.73
2017-11-29T12:44:44.605Z,98700.51
2017-11-29T12:47:12.122Z,98708.56
2017-11-29T12:49:51.248Z,98699.71
2017-11-29T12:52:18.703Z,98690.45
2017-11-29T12:54:46.160Z,98684.56
2017-11-29T12:57:13.640Z,98678.12
2017-11-29T12:59:41.106Z,98676.45
2017-11-29T13:02:08.582Z,98675.20
2017-11-29T13:04:36.966Z,98667.58
2017-11-29T13:07:04.421Z,98668.83
2017-11-29T13:09:31.939Z,98667.16
2017-11-29T13:11:59.427Z,98666.34
2017-11-29T13:14:26.881Z,98656.11
2017-11-29T13:16:54.370Z,98649.30
2017-11-29T13:19:21.902Z,98642.61
2017-11-29T13:21:49.360Z,98645.98
2017-11-29T13:24:16.876Z,98647.70
2017-11-29T13:26:44.341Z,98652.36
2017-11-29T13:29:11.797Z,98651.11
2017-11-29T13:31:39.309Z,98663.36
2017-11-29T13:34:06.796Z,98671.39
2017-11-29T13:36:34.279Z,98668.07
2017-11-29T13:39:01.836Z,98665.55
2017-11-29T13:41:29.310Z,98662.21
2017-11-29T13:43:56.774Z,98669.84
2017-11-29T13:46:24.253Z,98665.68
2017-11-29T13:48:54.057Z,98669.05
2017-11-29T13:51:21.617Z,98674.55
2017-11-29T13:53:49.094Z,98680.84
2017-11-29T13:56:16.741Z,98680.40
2017-11-29T13:58:44.209Z,98668.95
2017-11-29T14:01:11.701Z,98672.36
2017-11-29T14:03:39.184Z,98672.80
2017-11-29T14:06:06.654Z,98675.34
2017-11-29T14:08:34.364Z,98677.00
2017-11-29T14:11:01.848Z,98674.07
2017-11-29T14:13:29.486Z,98659.28
2017-11-29T14:15:56.956Z,98642.80
2017-11-29T14:18:24.581Z,98650.00
2017-11-29T14:20:52.079Z,98654.20
2017-11-29T14:23:19.534Z,98661.39
2017-11-29T14:25:47.018Z,98659.72
2017-11-29T14:28:16.605Z,98659.72
2017-11-29T14:30:44.257Z,98666.48
2017-11-29T14:33:11.792Z,98661.86
2017-11-29T14:35:39.249Z,98664.85
2017-11-29T14:38:06.748Z,98649.22
2017-11-29T14:40:37.237Z,98644.51
2017-11-29T14:43:04.976Z,98639.91
2017-11-29T14:45:32.536Z,98645.85
2017-11-29T14:48:00.020Z,98652.20
2017-11-29T14:50:27.469Z,98651.83
2017-11-29T14:52:54.992Z,98657.30
2017-11-29T14:55:22.465Z,98656.48
2017-11-29T14:57:49.962Z,98653.95
2017-11-29T15:00:18.785Z,98649.30
2017-11-29T15:02:46.246Z,98644.30
2017-11-29T15:05:13.783Z,98640.90
2017-11-29T15:07:41.237Z,98645.94
2017-11-29T15:10:08.695Z,98648.92
2017-11-29T15:12:36.178Z,98662.44
2017-11-29T15:15:03.925Z,98661.17
2017-11-29T15:17:31.616Z,98659.48
2017-11-29T15:19:59.060Z,98659.47
2017-11-29T15:22:27.457Z,98652.72
2017-11-29T15:24:54.943Z,98634.60
2017-11-29T15:27:22.824Z,98634.59
2017-11-29T15:29:50.304Z,98643.89
2017-11-29T15:32:17.924Z,98639.69
2017-11-29T15:34:45.446Z,98638.81
2017-11-29T15:37:12.873Z,98642.64
2017-11-29T15:39:40.372Z,98646.05
2017-11-29T15:42:07.829Z,98646.47
2017-11-29T15:44:39.563Z,98649.39
2017-11-29T15:47:07.136Z,98648.58
2017-11-29T15:49:34.632Z,98643.08
2017-11-29T15:52:02.169Z,98646.01
2017-11-29T15:54:30.556Z,98641.38
2017-11-29T15:56:58.092Z,98646.88
2017-11-29T15:59:25.577Z,98644.36
2017-11-29T16:01:53.021Z,98645.63
2017-11-29T16:04:21.138Z,98647.75
2017-11-29T16:06:50.457Z,98652.39
2017-11-29T16:09:18.748Z,98651.95
2017-11-29T16:11:46.209Z,98652.83
2017-11-29T16:14:13.710Z,98658.34
2017-11-29T16:16:41.237Z,98655.38
2017-11-29T16:19:08.776Z,98659.16
2017-11-29T16:21:36.447Z,98651.14
2017-11-29T16:24:04.797Z,98641.02
2017-11-29T16:26:32.346Z,98648.63
2017-11-29T16:28:59.938Z,98641.86
2017-11-29T16:31:27.465Z,98646.52
2017-11-29T16:33:54.992Z,98648.61
2017-11-29T16:36:22.534Z,98632.17
2017-11-29T16:38:50.013Z,98622.05
2017-11-29T16:41:17.522Z,98621.20
2017-11-29T16:43:45.034Z,98626.27
2017-11-29T16:46:12.558Z,98628.41
2017-11-29T16:48:40.068Z,98626.70
2017-11-29T16:51:07.564Z,98617.39
2017-11-29T16:53:35.054Z,98609.01
2017-11-29T16:56:02.621Z,98616.21
2017-11-29T16:58:30.187Z,98601.45
2017-11-29T17:00:57.743Z,98600.60
2017-11-29T17:03:25.249Z,98593.84
2017-11-29T17:05:52.753Z,98588.35
2017-11-29T17:08:20.258Z,98593.86
2017-11-29T17:10:47.785Z,98603.97
2017-11-29T17:13:15.325Z,98596.78
2017-11-29T17:15:43.149Z,98600.19
2017-11-29T17:18:10.629Z,98598.08
2017-11-29T17:20:38.190Z,98587.09
2017-11-29T17:23:05.680Z,98577.84
2017-11-29T17:25:33.172Z,98577.92
2017-11-29T17:28:00.684Z,98587.22
2017-11-29T17:30:29.531Z,98597.32
2017-11-29T17:32:57.014Z,98599.88
2017-11-29T17:35:24.510Z,98598.59
2017-11-29T17:37:52.004Z,98597.77
2017-11-29T17:40:19.680Z,98591.86
2017-11-29T17:42:47.391Z,98599.45
2017-11-29T17:45:15.367Z,98600.73
2017-11-29T17:47:42.858Z,98601.18
2017-11-29T17:50:10.408Z,98596.11
2017-11-29T17:52:38.074Z,98590.22
2017-11-29T17:55:05.563Z,98590.66
2017-11-29T17:57:33.185Z,98588.98
2017-11-29T18:00:00.656Z,98592.78
2017-11-29T18:02:28.103Z,98592.35
2017-11-29T18:04:55.602Z,98590.70
2017-11-29T18:07:23.076Z,98596.59
2017-11-29T18:09:50.549Z,98591.55
2017-11-29T18:12:18.018Z,98586.52
2017-11-29T18:14:45.732Z,98581.01
2017-11-29T18:17:13.268Z,98573.04
2017-11-29T18:19:40.730Z,98573.44
2017-11-29T18:22:08.223Z,98583.15
2017-11-29T18:24:35.763Z,98590.30
2017-11-29T18:27:03.278Z,98596.22
2017-11-29T18:29:30.800Z,98589.48
2017-11-29T18:31:58.268Z,98589.03
2017-11-29T18:34:25.734Z,98587.35
2017-11-29T18:36:53.230Z,98585.68
2017-11-29T18:39:21.814Z,98578.51
2017-11-29T18:41:49.346Z,98562.50
2017-11-29T18:44:18.778Z,98572.64
2017-11-29T18:46:46.471Z,98573.91
2017-11-29T18:49:14.011Z,98573.89
2017-11-29T18:51:41.789Z,98578.97
2017-11-29T18:54:09.373Z,98583.58
2017-11-29T18:56:39.034Z,98568.84
2017-11-29T18:59:06.646Z,98570.95
2017-11-29T19:01:34.182Z,98576.00
2017-11-29T19:04:01.761Z,98560.42
2017-11-29T19:06:29.385Z,98557.45
2017-11-29T19:08:56.903Z,98545.69
2017-11-29T19:11:24.478Z,98547.78
2017-11-29T19:13:51.953Z,98565.05
2017-11-29T19:16:19.438Z,98563.78
2017-11-29T19:18:47.018Z,98568.83
2017-11-29T19:21:14.650Z,98574.30
2017-11-29T19:23:42.154Z,98573.02
2017-11-29T19:26:09.798Z,98564.17
2017-11-29T19:28:39.145Z,98560.36
2017-11-29T19:31:06.810Z,98549.84
2017-11-29T19:33:34.365Z,98549.00
2017-11-29T19:36:01.913Z,98548.98
2017-11-29T19:38:29.408Z,98540.97
2017-11-29T19:40:56.883Z,98529.55
2017-11-29T19:43:24.389Z,98530.86
2017-11-29T19:45:51.865Z,98537.59
2017-11-29T19:48:19.583Z,98542.23
2017-11-29T19:50:47.051Z,98535.03
2017-11-29T19:53:14.559Z,98537.13
2017-11-29T19:55:42.048Z,98532.93
2017-11-29T19:58:09.511Z,98542.19
2017-11-29T20:00:37.109Z,98538.82
2017-11-29T20:03:04.868Z,98537.56
2017-11-29T20:05:32.366Z,98537.95
2017-11-29T20:07:59.866Z,98531.63
2017-11-29T20:10:27.351Z,98534.17
2017-11-29T20:12:54.822Z,98530.77
2017-11-29T20:15:22.591Z,98530.77
2017-11-29T20:17:50.121Z,98528.25
2017-11-29T20:20:19.626Z,98528.66
2017-11-29T20:22:47.144Z,98524.84
2017-11-29T20:25:14.601Z,98531.59
2017-11-29T20:27:42.122Z,98522.32
2017-11-29T20:30:09.579Z,98523.58
2017-11-29T20:32:37.073Z,98519.78
2017-11-29T20:35:04.663Z,98530.77
2017-11-29T20:37:32.632Z,98528.64
2017-11-29T20:40:00.133Z,98524.84
2017-11-29T20:42:27.869Z,98523.57
2017-11-29T20:44:55.413Z,98518.56
2017-11-29T20:47:23.845Z,98523.23
2017-11-29T20:49:51.346Z,98525.37
2017-11-29T20:52:25.266Z,98519.89
2017-11-29T20:54:52.897Z,98527.91
2017-11-29T20:57:23.376Z,98518.66
2017-11-29T20:59:50.902Z,98510.65
2017-11-29T21:02:18.495Z,98521.19
2017-11-29T21:04:46.022Z,98521.22
2017-11-29T21:07:13.518Z,98519.52
2017-11-29T21:09:40.993Z,98517.42
2017-11-29T21:12:08.548Z,98508.17
2017-11-29T21:14:36.158Z,98496.38
2017-11-29T21:17:03.698Z,98483.38
2017-11-29T21:19:31.271Z,98482.97
2017-11-29T21:21:58.756Z,98482.98
2017-11-29T21:24:26.413Z,98476.67
2017-11-29T21:26:54.232Z,98479.19
2017-11-29T21:29:21.733Z,98481.70
2017-11-29T21:31:49.205Z,98490.14
2017-11-29T21:34:17.747Z,98488.89
2017-11-29T21:36:51.256Z,98496.02
2017-11-29T21:39:23.582Z,98493.52
2017-11-29T21:41:51.055Z,98485.93
2017-11-29T21:44:18.525Z,98476.27
2017-11-29T21:46:46.935Z,98474.58
2017-11-29T21:49:14.427Z,98483.42
2017-11-29T21:51:41.898Z,98482.16
2017-11-29T21:54:09.372Z,98477.95
2017-11-29T21:56:36.855Z,98477.55
2017-11-29T21:59:04.423Z,98468.28
2017-11-29T22:01:33.363Z,98463.63
2017-11-29T22:04:01.137Z,98468.69
2017-11-29T22:06:29.719Z,98466.59
2017-11-29T22:08:57.607Z,98475.02
2017-11-29T22:11:25.150Z,98469.98
2017-11-29T22:13:54.009Z,98466.17
2017-11-29T22:16:22.284Z,98453.13
2017-11-29T22:18:51.300Z,98457.36
2017-11-29T22:21:18.805Z,98448.93
2017-11-29T22:23:46.294Z,98445.14
2017-11-29T22:26:13.785Z,98443.48
2017-11-29T22:28:41.418Z,98454.84
2017-11-29T22:31:08.874Z,98447.25
2017-11-29T22:33:36.352Z,98446.01
2017-11-29T22:36:03.821Z,98448.11
2017-11-29T22:38:31.774Z,98440.55
2017-11-29T22:40:59.299Z,98432.95
2017-11-29T22:43:26.761Z,98427.89
2017-11-29T22:45:54.253Z,98423.70
2017-11-29T22:48:21.758Z,98418.23
2017-11-29T22:50:49.223Z,98422.85
2017-11-29T22:53:16.701Z,98432.97
2017-11-29T22:55:44.177Z,98430.00
2017-11-29T22:58:11.628Z,98429.59
2017-11-29T23:00:39.350Z,98419.09
2017-11-29T23:03:06.847Z,98413.61
2017-11-29T23:05:34.367Z,98408.58
2017-11-29T23:08:01.981Z,98411.94
2017-11-29T23:10:30.084Z,98404.80
2017-11-29T23:12:57.563Z,98402.69
2017-11-29T23:15:25.055Z,98400.58
2017-11-29T23:17:52.520Z,98401.00
2017-11-29T23:20:20.049Z,98397.22
2017-11-29T23:22:48.516Z,98387.55
2017-11-29T23:25:16.017Z,98383.31
2017-11-29T23:27:43.486Z,98377.03
2017-11-29T23:30:10.967Z,98374.95
2017-11-29T23:32:38.465Z,98374.92
2017-11-29T23:35:05.920Z,98374.09
2017-11-29T23:37:33.379Z,98369.06
2017-11-29T23:40:00.859Z,98372.83
2017-11-29T23:42:29.355Z,98367.80
2017-11-29T23:44:56.841Z,98354.33
2017-11-29T23:47:24.320Z,98351.41
2017-11-29T23:49:51.790Z,98345.50
2017-11-29T23:52:19.272Z,98344.25
2017-11-29T23:54:48.060Z,98332.05
2017-11-29T23:57:15.640Z,98339.23
2017-11-29T23:59:43.135Z,98342.58
